createdAt,value
2023-03-06T00:00:32.483Z,66.61
2023-03-06T00:02:59.313Z,67.88
2023-03-06T00:05:27.063Z,68.50
2023-03-06T00:07:53.833Z,69.66
2023-03-06T00:10:23.790Z,68.05
2023-03-06T00:12:56.558Z,67.86
2023-03-06T00:15:24.830Z,67.23
2023-03-06T00:17:52.229Z,71.65
2023-03-06T00:20:19.889Z,72.15
2023-03-06T00:22:46.910Z,69.98
2023-03-06T00:25:16.993Z,68.66
2023-03-06T00:27:44.138Z,69.67
2023-03-06T00:30:16.715Z,68.44
2023-03-06T00:32:43.866Z,69.80
2023-03-06T00:35:12.188Z,72.07
2023-03-06T00:37:44.121Z,71.76
2023-03-06T00:40:16.419Z,70.73
2023-03-06T00:42:43.483Z,68.21
2023-03-06T00:45:11.099Z,68.22
2023-03-06T00:47:38.068Z,66.69
2023-03-06T00:50:05.753Z,66.03
2023-03-06T00:52:32.684Z,65.06
2023-03-06T00:54:59.529Z,64.40
2023-03-06T00:57:26.154Z,69.10
2023-03-06T00:59:53.232Z,68.09
2023-03-06T01:02:20.058Z,66.13
2023-03-06T01:04:47.026Z,65.90
2023-03-06T01:07:13.670Z,66.49
2023-03-06T01:09:41.424Z,67.98
2023-03-06T01:12:08.556Z,68.56
2023-03-06T01:14:35.440Z,68.18
2023-03-06T01:17:02.115Z,67.79
2023-03-06T01:19:28.772Z,69.36
2023-03-06T01:21:57.718Z,72.09
2023-03-06T01:24:24.561Z,71.36
2023-03-06T01:26:51.584Z,71.67
2023-03-06T01:29:18.352Z,71.03
2023-03-06T01:31:46.190Z,70.37
2023-03-06T01:34:12.964Z,70.85
2023-03-06T01:36:39.817Z,70.00
2023-03-06T01:39:06.869Z,71.70
2023-03-06T01:41:33.457Z,70.03
2023-03-06T01:44:00.169Z,72.53
2023-03-06T01:46:32.196Z,71.37
2023-03-06T01:49:25.552Z,68.04
2023-03-06T01:51:55.446Z,68.35
2023-03-06T01:54:35.641Z,67.01
2023-03-06T01:57:36.091Z,67.92
2023-03-06T02:00:14.201Z,67.03
2023-03-06T02:03:09.967Z,66.18
2023-03-06T02:05:37.635Z,65.71
2023-03-06T02:08:06.789Z,65.34
2023-03-06T02:10:34.256Z,65.33
2023-03-06T02:13:01.543Z,65.06
2023-03-06T02:15:30.218Z,67.72
2023-03-06T02:17:57.283Z,68.22
2023-03-06T02:20:27.200Z,71.22
2023-03-06T02:23:29.475Z,70.41
2023-03-06T02:25:58.598Z,71.18
2023-03-06T02:28:25.400Z,69.61
2023-03-06T02:30:54.920Z,70.12
2023-03-06T02:33:24.893Z,69.77
2023-03-06T02:36:02.404Z,68.69
2023-03-06T02:38:42.605Z,69.51
2023-03-06T02:41:09.403Z,70.60
2023-03-06T02:43:39.687Z,69.87
2023-03-06T02:46:07.012Z,71.10
2023-03-06T02:48:33.694Z,71.87
2023-03-06T02:51:00.454Z,69.18
2023-03-06T02:53:27.450Z,69.40
2023-03-06T02:55:54.557Z,69.18
2023-03-06T02:58:21.316Z,69.17
2023-03-06T03:00:49.657Z,69.36
2023-03-06T03:03:17.516Z,69.64
2023-03-06T03:05:44.223Z,68.64
2023-03-06T03:08:10.956Z,68.83
2023-03-06T03:10:37.760Z,68.42
2023-03-06T03:13:04.980Z,68.01
2023-03-06T03:15:31.928Z,68.53
2023-03-06T03:17:58.624Z,68.63
2023-03-06T03:20:25.368Z,68.45
2023-03-06T03:22:54.555Z,69.37
2023-03-06T03:25:23.680Z,68.41
2023-03-06T03:27:50.813Z,68.52
2023-03-06T03:30:17.861Z,66.87
2023-03-06T03:32:44.497Z,67.79
2023-03-06T03:35:11.855Z,69.88
2023-03-06T03:37:38.586Z,71.25
2023-03-06T03:40:06.085Z,72.54
2023-03-06T03:42:32.999Z,71.74
2023-03-06T03:44:59.697Z,69.91
2023-03-06T03:47:26.361Z,69.37
2023-03-06T03:49:53.100Z,68.86
2023-03-06T03:52:19.829Z,68.29
2023-03-06T03:54:46.507Z,67.95
2023-03-06T03:57:13.160Z,70.46
2023-03-06T03:59:39.781Z,69.14
2023-03-06T04:02:06.454Z,69.59
2023-03-06T04:04:33.143Z,71.81
2023-03-06T04:06:59.785Z,69.86
2023-03-06T04:09:26.420Z,70.42
2023-03-06T04:11:53.061Z,70.33
2023-03-06T04:14:19.716Z,70.17
2023-03-06T04:16:46.371Z,68.70
2023-03-06T04:19:13.003Z,68.53
2023-03-06T04:21:39.709Z,67.52
2023-03-06T04:24:06.707Z,66.55
2023-03-06T04:26:33.377Z,66.73
2023-03-06T04:29:00.109Z,66.96
2023-03-06T04:31:26.865Z,68.03
2023-03-06T04:33:53.564Z,68.25
2023-03-06T04:36:38.485Z,69.20
2023-03-06T04:39:05.177Z,69.37
2023-03-06T04:41:31.823Z,70.52
2023-03-06T04:43:58.752Z,69.69
2023-03-06T04:46:26.545Z,70.34
2023-03-06T04:48:53.190Z,68.97
2023-03-06T04:51:20.086Z,68.77
2023-03-06T04:53:46.875Z,68.51
2023-03-06T04:56:13.582Z,68.32
2023-03-06T04:58:40.321Z,67.98
2023-03-06T05:01:07.185Z,66.93
2023-03-06T05:03:33.831Z,66.83
2023-03-06T05:06:00.529Z,67.35
2023-03-06T05:08:27.784Z,69.04
2023-03-06T05:11:00.390Z,69.40
2023-03-06T05:13:28.112Z,69.99
2023-03-06T05:15:55.258Z,68.74
2023-03-06T05:18:22.053Z,68.28
2023-03-06T05:20:48.643Z,67.38
2023-03-06T05:23:15.274Z,67.99
2023-03-06T05:25:42.246Z,66.85
2023-03-06T05:28:09.095Z,67.46
2023-03-06T05:30:36.503Z,67.43
2023-03-06T05:33:03.188Z,67.76
2023-03-06T05:35:29.986Z,67.86
2023-03-06T05:37:56.669Z,67.65
2023-03-06T05:40:23.322Z,68.20
2023-03-06T05:42:49.924Z,67.32
2023-03-06T05:45:16.534Z,67.45
2023-03-06T05:47:43.215Z,68.00
2023-03-06T05:50:10.824Z,67.68
2023-03-06T05:52:38.790Z,69.11
2023-03-06T05:55:05.967Z,67.50
2023-03-06T05:57:32.676Z,66.16
2023-03-06T05:59:59.281Z,66.23
2023-03-06T06:02:25.942Z,67.78
2023-03-06T06:04:52.578Z,69.17
2023-03-06T06:07:19.273Z,71.34
2023-03-06T06:09:45.908Z,71.85
2023-03-06T06:12:14.033Z,69.42
2023-03-06T06:14:41.752Z,68.82
2023-03-06T06:17:08.512Z,68.47
2023-03-06T06:19:37.024Z,69.18
2023-03-06T06:22:03.901Z,67.31
2023-03-06T06:24:32.065Z,66.76
2023-03-06T06:27:03.870Z,66.52
2023-03-06T06:29:31.262Z,68.19
2023-03-06T06:31:58.151Z,67.20
2023-03-06T06:34:25.846Z,66.45
2023-03-06T06:36:53.849Z,64.93
2023-03-06T06:39:22.977Z,64.93
2023-03-06T06:42:05.554Z,64.45
2023-03-06T06:44:38.049Z,66.96
2023-03-06T06:47:24.200Z,68.27
2023-03-06T06:49:53.186Z,67.73
2023-03-06T06:52:19.976Z,66.36
2023-03-06T06:54:46.770Z,65.44
2023-03-06T06:57:13.469Z,64.93
2023-03-06T06:59:40.134Z,65.93
2023-03-06T07:02:06.754Z,68.47
2023-03-06T07:04:33.565Z,66.28
2023-03-06T07:07:00.307Z,64.46
2023-03-06T07:09:27.015Z,63.50
2023-03-06T07:11:53.668Z,61.81
2023-03-06T07:14:20.284Z,61.68
2023-03-06T07:16:46.923Z,60.45
2023-03-06T07:19:14.031Z,60.73
2023-03-06T07:21:41.220Z,60.11
2023-03-06T07:24:08.329Z,60.04
2023-03-06T07:26:35.192Z,59.94
2023-03-06T07:29:03.105Z,58.41
2023-03-06T07:31:32.719Z,58.54
2023-03-06T07:34:00.194Z,58.37
2023-03-06T07:36:27.133Z,58.45
2023-03-06T07:38:53.801Z,58.94
2023-03-06T07:41:22.484Z,58.83
2023-03-06T07:43:49.940Z,58.07
2023-03-06T07:46:20.018Z,58.41
2023-03-06T07:48:46.650Z,58.08
2023-03-06T07:51:17.249Z,57.77
2023-03-06T07:53:44.432Z,58.03
2023-03-06T07:56:11.976Z,59.07
2023-03-06T07:58:41.842Z,59.31
2023-03-06T08:01:12.600Z,58.38
2023-03-06T08:03:39.670Z,57.56
2023-03-06T08:06:18.905Z,57.56
2023-03-06T08:08:47.772Z,58.43
2023-03-06T08:11:17.028Z,61.84
2023-03-06T08:13:44.740Z,61.07
2023-03-06T08:16:12.386Z,60.53
2023-03-06T08:18:39.139Z,62.28
2023-03-06T08:21:10.010Z,62.37
2023-03-06T08:23:37.328Z,61.01
2023-03-06T08:26:07.525Z,60.37
2023-03-06T08:28:35.134Z,59.33
2023-03-06T08:31:12.891Z,58.81
2023-03-06T08:33:40.813Z,59.50
2023-03-06T08:36:07.621Z,58.37
2023-03-06T08:38:34.293Z,57.61
2023-03-06T08:41:00.977Z,58.41
2023-03-06T08:43:27.780Z,57.30
2023-03-06T08:45:59.058Z,55.92
2023-03-06T08:48:26.298Z,56.45
2023-03-06T08:50:53.576Z,54.30
2023-03-06T08:53:30.453Z,55.86
2023-03-06T08:56:03.916Z,56.44
2023-03-06T08:58:34.766Z,56.28
2023-03-06T09:01:01.750Z,56.98
2023-03-06T09:03:28.587Z,58.79
2023-03-06T09:05:55.205Z,58.51
2023-03-06T09:08:21.823Z,59.36
2023-03-06T09:10:48.984Z,57.71
2023-03-06T09:13:15.720Z,56.81
2023-03-06T09:15:42.378Z,56.20
2023-03-06T09:18:09.101Z,56.04
2023-03-06T09:20:36.784Z,57.64
2023-03-06T09:23:03.573Z,56.21
2023-03-06T09:25:30.250Z,56.74
2023-03-06T09:28:10.426Z,56.87
2023-03-06T09:30:40.514Z,58.18
2023-03-06T09:33:07.265Z,58.71
2023-03-06T09:35:34.164Z,58.11
2023-03-06T09:38:00.917Z,57.50
2023-03-06T09:40:41.334Z,57.99
2023-03-06T09:43:24.637Z,58.31
2023-03-06T09:45:53.694Z,59.58
2023-03-06T09:48:27.452Z,58.27
2023-03-06T09:51:02.977Z,57.72
2023-03-06T09:53:46.211Z,55.71
2023-03-06T09:56:26.685Z,55.32
2023-03-06T09:59:13.161Z,56.45
2023-03-06T10:01:45.931Z,56.08
2023-03-06T10:04:40.599Z,55.07
2023-03-06T10:07:22.254Z,54.61
2023-03-06T10:10:02.587Z,55.54
2023-03-06T10:12:42.462Z,53.98
2023-03-06T10:15:21.531Z,55.36
2023-03-06T10:17:48.856Z,56.58
2023-03-06T10:20:16.682Z,55.65
2023-03-06T10:23:01.397Z,56.40
2023-03-06T10:25:54.829Z,55.41
2023-03-06T10:28:36.171Z,57.00
2023-03-06T10:31:18.338Z,59.31
2023-03-06T10:33:55.109Z,58.13
2023-03-06T10:36:28.224Z,57.70
2023-03-06T10:38:57.520Z,56.53
2023-03-06T10:41:31.558Z,57.04
2023-03-06T10:44:01.251Z,57.34
2023-03-06T10:46:32.165Z,55.75
2023-03-06T10:49:02.330Z,56.45
2023-03-06T10:51:31.366Z,54.09
2023-03-06T10:54:01.226Z,54.66
2023-03-06T10:56:35.445Z,53.75
2023-03-06T10:59:19.360Z,53.08
2023-03-06T11:01:55.231Z,54.32
2023-03-06T11:04:26.683Z,52.01
2023-03-06T11:07:16.384Z,54.89
2023-03-06T11:10:01.642Z,53.07
2023-03-06T11:12:35.820Z,54.53
2023-03-06T11:15:14.569Z,54.59
2023-03-06T11:17:58.255Z,55.21
2023-03-06T11:20:51.911Z,53.39
2023-03-06T11:23:34.897Z,52.02
2023-03-06T11:26:16.601Z,52.26
2023-03-06T11:29:07.890Z,51.29
2023-03-06T11:32:14.522Z,52.97
2023-03-06T11:34:59.663Z,51.85
2023-03-06T11:37:31.931Z,51.48
2023-03-06T11:40:01.255Z,52.51
2023-03-06T11:42:39.597Z,50.79
2023-03-06T11:45:24.943Z,51.20
2023-03-06T11:48:03.385Z,50.84
2023-03-06T11:50:41.684Z,49.27
2023-03-06T11:53:15.956Z,49.41
2023-03-06T11:56:00.765Z,49.20
2023-03-06T11:58:39.422Z,48.79
2023-03-06T12:01:12.186Z,49.82
2023-03-06T12:03:44.487Z,49.28
2023-03-06T12:06:22.012Z,49.90
2023-03-06T12:09:03.828Z,48.47
2023-03-06T12:11:45.848Z,47.84
2023-03-06T12:14:32.497Z,48.75
2023-03-06T12:17:05.137Z,48.84
2023-03-06T12:20:02.043Z,48.86
2023-03-06T12:22:40.060Z,47.60
2023-03-06T12:25:18.672Z,47.72
2023-03-06T12:28:06.553Z,46.90
2023-03-06T12:30:42.100Z,46.74
2023-03-06T12:33:22.656Z,46.36
2023-03-06T12:36:15.426Z,46.83
2023-03-06T12:39:00.032Z,47.70
2023-03-06T12:41:41.725Z,48.55
2023-03-06T12:44:30.334Z,47.48
2023-03-06T12:47:20.473Z,46.60
2023-03-06T12:50:07.620Z,47.72
2023-03-06T12:52:35.709Z,47.77
2023-03-06T12:55:07.445Z,47.67
2023-03-06T12:57:34.321Z,46.60
2023-03-06T13:00:01.178Z,45.86
2023-03-06T13:03:19.840Z,44.35
2023-03-06T13:06:11.574Z,44.94
2023-03-06T13:09:10.505Z,43.76
2023-03-06T13:12:08.356Z,44.20
2023-03-06T13:14:42.332Z,43.93
2023-03-06T13:17:24.358Z,44.10
2023-03-06T13:20:13.209Z,43.56
2023-03-06T13:22:43.120Z,44.63
2023-03-06T13:25:35.673Z,42.73
2023-03-06T13:28:04.870Z,42.89
2023-03-06T13:30:34.481Z,44.63
2023-03-06T13:33:01.171Z,42.89
2023-03-06T13:35:30.496Z,42.04
2023-03-06T13:37:59.231Z,41.94
2023-03-06T13:40:32.138Z,44.28
2023-03-06T13:43:07.541Z,43.34
2023-03-06T13:45:40.399Z,43.42
2023-03-06T13:48:30.295Z,44.37
2023-03-06T13:50:56.088Z,43.50
2023-03-06T13:53:51.799Z,43.31
2023-03-06T13:56:45.731Z,42.36
2023-03-06T13:59:39.362Z,41.15
2023-03-06T14:02:36.697Z,42.22
2023-03-06T14:05:12.747Z,41.20
2023-03-06T14:07:45.521Z,40.63
2023-03-06T14:10:22.325Z,40.71
2023-03-06T14:12:48.915Z,41.18
2023-03-06T14:15:41.710Z,39.33
2023-03-06T14:18:22.003Z,40.04
2023-03-06T14:20:54.566Z,39.99
2023-03-06T14:23:21.230Z,39.96
2023-03-06T14:26:12.554Z,39.63
2023-03-06T14:28:39.226Z,38.91
2023-03-06T14:31:17.901Z,38.17
2023-03-06T14:34:21.141Z,38.30
2023-03-06T14:36:50.976Z,37.94
2023-03-06T14:39:37.304Z,38.06
2023-03-06T14:42:06.893Z,38.45
2023-03-06T14:44:33.653Z,40.85
2023-03-06T14:47:22.958Z,39.19
2023-03-06T14:50:25.997Z,39.17
2023-03-06T14:53:16.230Z,38.38
2023-03-06T14:56:05.996Z,39.64
2023-03-06T14:58:38.322Z,40.23
2023-03-06T15:01:10.706Z,39.88
2023-03-06T15:03:50.811Z,38.69
2023-03-06T15:06:29.069Z,39.24
2023-03-06T15:09:19.348Z,39.47
2023-03-06T15:12:00.146Z,39.13
2023-03-06T15:14:36.899Z,39.41
2023-03-06T15:17:22.700Z,39.13
2023-03-06T15:19:52.722Z,39.29
2023-03-06T15:22:40.242Z,39.45
2023-03-06T15:25:18.798Z,38.67
2023-03-06T15:27:59.165Z,38.81
2023-03-06T15:30:36.432Z,39.82
2023-03-06T15:33:29.200Z,39.05
2023-03-06T15:35:58.834Z,39.97
2023-03-06T15:38:44.027Z,41.18
2023-03-06T15:41:24.462Z,40.98
2023-03-06T15:43:51.089Z,40.77
2023-03-06T15:46:17.761Z,39.45
2023-03-06T15:49:01.104Z,39.09
2023-03-06T15:51:32.163Z,37.61
2023-03-06T15:54:11.845Z,37.79
2023-03-06T15:56:42.577Z,38.62
2023-03-06T15:59:24.444Z,38.75
2023-03-06T16:01:52.052Z,37.63
2023-03-06T16:04:20.269Z,38.48
2023-03-06T16:06:46.884Z,38.37
2023-03-06T16:09:14.351Z,38.21
2023-03-06T16:11:44.320Z,37.49
2023-03-06T16:14:20.926Z,36.88
2023-03-06T16:16:48.618Z,37.16
2023-03-06T16:19:25.876Z,36.71
2023-03-06T16:21:53.981Z,36.07
2023-03-06T16:24:20.606Z,36.46
2023-03-06T16:26:52.564Z,36.43
2023-03-06T16:29:24.770Z,38.26
2023-03-06T16:31:52.474Z,38.19
2023-03-06T16:34:19.081Z,37.70
2023-03-06T16:36:47.238Z,37.93
2023-03-06T16:39:17.063Z,37.74
2023-03-06T16:41:43.705Z,37.94
2023-03-06T16:44:10.465Z,38.97
2023-03-06T16:46:40.220Z,38.27
2023-03-06T16:49:06.996Z,38.26
2023-03-06T16:51:33.656Z,38.40
2023-03-06T16:54:00.266Z,37.94
2023-03-06T16:56:26.923Z,37.62
2023-03-06T16:58:53.597Z,37.73
2023-03-06T17:01:20.302Z,38.70
2023-03-06T17:03:47.128Z,38.12
2023-03-06T17:06:20.819Z,38.31
2023-03-06T17:08:49.458Z,38.51
2023-03-06T17:11:17.081Z,38.69
2023-03-06T17:13:48.261Z,38.65
2023-03-06T17:16:15.841Z,39.67
2023-03-06T17:18:45.337Z,40.43
2023-03-06T17:21:14.165Z,40.07
2023-03-06T17:23:40.797Z,40.75
2023-03-06T17:26:19.105Z,39.98
2023-03-06T17:28:46.410Z,39.85
2023-03-06T17:31:17.778Z,40.96
2023-03-06T17:33:44.896Z,41.24
2023-03-06T17:36:11.901Z,40.72
2023-03-06T17:38:38.576Z,40.61
2023-03-06T17:41:07.616Z,41.69
2023-03-06T17:43:34.270Z,41.02
2023-03-06T17:46:09.956Z,41.75
2023-03-06T17:48:38.091Z,41.46
2023-03-06T17:51:05.926Z,41.15
2023-03-06T17:53:33.317Z,44.48
2023-03-06T17:55:59.935Z,45.37
2023-03-06T17:58:27.417Z,45.76
2023-03-06T18:00:54.155Z,46.97
2023-03-06T18:03:21.105Z,45.75
2023-03-06T18:06:05.254Z,47.56
2023-03-06T18:08:32.280Z,48.22
2023-03-06T18:11:03.389Z,48.61
2023-03-06T18:13:31.536Z,48.14
2023-03-06T18:15:58.414Z,48.06
2023-03-06T18:18:25.493Z,48.22
2023-03-06T18:20:52.396Z,48.82
2023-03-06T18:23:19.050Z,49.54
2023-03-06T18:25:45.696Z,49.35
2023-03-06T18:28:12.444Z,47.99
2023-03-06T18:30:40.888Z,46.79
2023-03-06T18:33:07.999Z,47.78
2023-03-06T18:35:35.400Z,49.48
2023-03-06T18:38:02.330Z,49.25
2023-03-06T18:40:28.968Z,47.81
2023-03-06T18:42:55.587Z,45.39
2023-03-06T18:45:22.231Z,46.67
2023-03-06T18:47:48.892Z,47.83
2023-03-06T18:50:15.709Z,48.72
2023-03-06T18:52:43.697Z,50.53
2023-03-06T18:55:10.635Z,50.25
2023-03-06T18:57:37.238Z,50.48
2023-03-06T19:00:05.415Z,50.69
2023-03-06T19:02:32.043Z,51.17
2023-03-06T19:04:58.811Z,51.17
2023-03-06T19:07:25.774Z,50.78
2023-03-06T19:09:55.031Z,50.21
2023-03-06T19:12:21.894Z,48.83
2023-03-06T19:14:48.623Z,48.92
2023-03-06T19:17:15.241Z,48.13
2023-03-06T19:19:41.877Z,48.75
2023-03-06T19:22:08.502Z,49.10
2023-03-06T19:24:35.181Z,47.87
2023-03-06T19:27:01.838Z,48.65
2023-03-06T19:29:30.495Z,48.26
2023-03-06T19:31:57.566Z,47.31
2023-03-06T19:34:24.260Z,47.22
2023-03-06T19:36:51.031Z,47.17
2023-03-06T19:39:17.730Z,47.73
2023-03-06T19:41:46.370Z,48.36
2023-03-06T19:44:13.022Z,47.95
2023-03-06T19:46:39.615Z,48.45
2023-03-06T19:49:06.249Z,48.97
2023-03-06T19:51:32.865Z,49.05
2023-03-06T19:53:59.587Z,49.39
2023-03-06T19:56:28.777Z,49.54
2023-03-06T19:58:56.143Z,50.28
2023-03-06T20:01:25.209Z,49.13
2023-03-06T20:03:56.802Z,49.58
2023-03-06T20:06:23.429Z,49.77
2023-03-06T20:08:50.026Z,49.52
2023-03-06T20:11:25.531Z,49.01
2023-03-06T20:13:52.787Z,50.97
2023-03-06T20:16:19.482Z,49.63
2023-03-06T20:18:46.667Z,50.63
2023-03-06T20:21:14.538Z,49.78
2023-03-06T20:23:41.598Z,49.88
2023-03-06T20:26:11.807Z,50.38
2023-03-06T20:28:39.629Z,50.32
2023-03-06T20:31:16.021Z,50.34
2023-03-06T20:33:43.540Z,50.57
2023-03-06T20:36:15.570Z,51.39
2023-03-06T20:38:43.124Z,51.00
2023-03-06T20:41:22.793Z,50.42
2023-03-06T20:43:52.578Z,50.69
2023-03-06T20:46:21.762Z,51.08
2023-03-06T20:48:50.113Z,51.16
2023-03-06T20:51:23.328Z,51.42
2023-03-06T20:53:52.542Z,52.13
2023-03-06T20:56:24.557Z,51.30
2023-03-06T20:58:52.134Z,51.11
2023-03-06T21:01:23.105Z,50.83
2023-03-06T21:03:49.823Z,51.43
2023-03-06T21:06:17.139Z,50.05
2023-03-06T21:08:43.924Z,50.54
2023-03-06T21:11:10.862Z,50.93
2023-03-06T21:13:37.820Z,51.38
2023-03-06T21:16:10.366Z,51.13
2023-03-06T21:18:37.189Z,49.69
2023-03-06T21:21:25.084Z,50.87
2023-03-06T21:23:52.073Z,51.40
2023-03-06T21:26:21.840Z,49.27
2023-03-06T21:28:49.283Z,49.82
2023-03-06T21:31:18.942Z,48.75
2023-03-06T21:33:47.491Z,50.12
2023-03-06T21:36:14.784Z,48.13
2023-03-06T21:38:41.617Z,50.54
2023-03-06T21:41:11.560Z,49.35
2023-03-06T21:43:38.752Z,49.66
2023-03-06T21:46:06.214Z,48.00
2023-03-06T21:48:33.155Z,49.21
2023-03-06T21:51:08.527Z,48.54
2023-03-06T21:53:36.076Z,47.68
2023-03-06T21:56:03.943Z,47.69
2023-03-06T21:58:31.027Z,48.45
2023-03-06T22:00:57.816Z,47.05
2023-03-06T22:03:24.617Z,47.01
2023-03-06T22:05:51.538Z,47.59
2023-03-06T22:08:19.809Z,48.19
2023-03-06T22:10:48.515Z,47.60
2023-03-06T22:13:15.451Z,47.98
2023-03-06T22:15:52.481Z,48.83
2023-03-06T22:18:19.941Z,49.28
2023-03-06T22:20:46.653Z,49.78
2023-03-06T22:23:13.446Z,49.60
2023-03-06T22:25:40.323Z,49.67
2023-03-06T22:28:07.029Z,48.98
2023-03-06T22:30:33.738Z,48.92
2023-03-06T22:33:00.369Z,48.80
2023-03-06T22:35:27.115Z,51.08
2023-03-06T22:37:53.739Z,50.99
2023-03-06T22:40:20.374Z,50.91
2023-03-06T22:42:47.013Z,49.68
2023-03-06T22:45:13.649Z,49.53
2023-03-06T22:47:40.320Z,50.47
2023-03-06T22:50:07.790Z,50.62
2023-03-06T22:52:34.436Z,49.54
2023-03-06T22:55:01.312Z,49.85
2023-03-06T22:57:27.941Z,50.63
2023-03-06T22:59:54.617Z,51.54
2023-03-06T23:02:21.561Z,50.44
2023-03-06T23:04:49.541Z,49.95
2023-03-06T23:07:16.202Z,50.68
2023-03-06T23:09:47.028Z,51.12
2023-03-06T23:12:14.025Z,50.42
2023-03-06T23:14:40.669Z,49.36
2023-03-06T23:17:07.302Z,49.28
2023-03-06T23:19:33.927Z,49.16
2023-03-06T23:22:00.600Z,50.39
2023-03-06T23:24:27.214Z,48.32
2023-03-06T23:26:53.926Z,47.85
2023-03-06T23:29:20.534Z,47.96
2023-03-06T23:31:47.137Z,47.41
2023-03-06T23:34:13.871Z,47.54
2023-03-06T23:36:40.505Z,47.61
2023-03-06T23:39:07.141Z,47.64
2023-03-06T23:41:33.813Z,48.16
2023-03-06T23:44:00.463Z,48.44
2023-03-06T23:46:27.841Z,47.05
2023-03-06T23:48:55.669Z,46.91
2023-03-06T23:51:23.183Z,46.36
2023-03-06T23:53:56.503Z,46.73
2023-03-06T23:56:25.001Z,47.05
2023-03-06T23:58:51.981Z,46.98
